createdAt,value
2023-01-30T00:00:05.834Z,-6.54
2023-01-30T00:01:05.935Z,-6.55
2023-01-30T00:02:05.887Z,-6.57
2023-01-30T00:03:07.923Z,-6.60
2023-01-30T00:04:05.802Z,-6.62
2023-01-30T00:05:05.965Z,-6.62
2023-01-30T00:06:05.753Z,-6.62
2023-01-30T00:07:06.832Z,-6.63
2023-01-30T00:08:05.736Z,-6.64
2023-01-30T00:09:07.835Z,-6.63
2023-01-30T00:10:05.703Z,-6.61
2023-01-30T00:11:05.832Z,-6.59
2023-01-30T00:12:05.671Z,-6.59
2023-01-30T00:13:05.816Z,-6.61
2023-01-30T00:14:05.650Z,-6.62
2023-01-30T00:15:27.751Z,-6.61
2023-01-30T00:16:05.690Z,-6.59
2023-01-30T00:17:05.721Z,-6.57
2023-01-30T00:18:05.626Z,-6.57
2023-01-30T00:19:05.717Z,-6.58
2023-01-30T00:20:05.577Z,-6.60
2023-01-30T00:21:05.650Z,-6.62
2023-01-30T00:22:05.576Z,-6.62
2023-01-30T00:23:05.758Z,-6.61
2023-01-30T00:24:05.533Z,-6.58
2023-01-30T00:25:05.807Z,-6.56
2023-01-30T00:26:05.588Z,-6.55
2023-01-30T00:27:05.774Z,-6.53
2023-01-30T00:28:05.487Z,-6.53
2023-01-30T00:29:05.639Z,-6.53
2023-01-30T00:30:05.459Z,-6.56
2023-01-30T00:31:05.627Z,-6.59
2023-01-30T00:32:05.427Z,-6.62
2023-01-30T00:33:05.577Z,-6.64
2023-01-30T00:34:05.399Z,-6.67
2023-01-30T00:35:05.443Z,-6.66
2023-01-30T00:36:05.449Z,-6.64
2023-01-30T00:37:08.699Z,-6.61
2023-01-30T00:38:05.370Z,-6.58
2023-01-30T00:39:05.476Z,-6.57
2023-01-30T00:40:05.395Z,-6.56
2023-01-30T00:41:05.465Z,-6.54
2023-01-30T00:42:05.304Z,-6.50
2023-01-30T00:43:05.454Z,-6.48
2023-01-30T00:44:05.282Z,-6.45
2023-01-30T00:45:05.365Z,-6.42
2023-01-30T00:46:05.290Z,-6.43
2023-01-30T00:47:05.368Z,-6.43
2023-01-30T00:48:05.234Z,-6.44
2023-01-30T00:49:05.347Z,-6.46
2023-01-30T00:50:05.205Z,-6.47
2023-01-30T00:51:05.394Z,-6.49
2023-01-30T00:52:05.189Z,-6.52
2023-01-30T00:53:05.372Z,-6.55
2023-01-30T00:54:05.159Z,-6.55
2023-01-30T00:55:05.254Z,-6.55
2023-01-30T00:56:05.135Z,-6.55
2023-01-30T00:57:05.289Z,-6.56
2023-01-30T00:58:05.102Z,-6.59
2023-01-30T00:59:05.267Z,-6.59
2023-01-30T01:00:05.083Z,-6.57
2023-01-30T01:01:05.266Z,-6.55
2023-01-30T01:02:05.102Z,-6.55
2023-01-30T01:03:05.206Z,-6.55
2023-01-30T01:04:05.031Z,-6.54
2023-01-30T01:05:05.178Z,-6.55
2023-01-30T01:06:05.007Z,-6.56
2023-01-30T01:07:07.152Z,-6.54
2023-01-30T01:08:04.979Z,-6.47
2023-01-30T01:09:05.095Z,-6.43
2023-01-30T01:10:04.976Z,-6.42
2023-01-30T01:11:05.088Z,-6.41
2023-01-30T01:12:04.937Z,-6.43
2023-01-30T01:13:04.958Z,-6.46
2023-01-30T01:14:04.936Z,-6.46
2023-01-30T01:15:05.007Z,-6.49
2023-01-30T01:16:04.916Z,-6.55
2023-01-30T01:17:04.985Z,-6.61
2023-01-30T01:18:04.876Z,-6.64
2023-01-30T01:19:05.997Z,-6.64
2023-01-30T01:20:04.835Z,-6.69
2023-01-30T01:21:05.008Z,-6.74
2023-01-30T01:22:04.814Z,-6.78
2023-01-30T01:23:04.885Z,-6.81
2023-01-30T01:24:04.775Z,-6.83
2023-01-30T01:25:06.966Z,-6.85
2023-01-30T01:26:04.759Z,-6.87
2023-01-30T01:27:04.919Z,-6.88
2023-01-30T01:28:04.735Z,-6.87
2023-01-30T01:29:04.892Z,-6.86
2023-01-30T01:30:04.717Z,-6.85
2023-01-30T01:31:27.012Z,-6.87
2023-01-30T01:32:04.728Z,-6.90
2023-01-30T01:33:04.835Z,-6.93
2023-01-30T01:34:04.672Z,-6.95
2023-01-30T01:35:04.813Z,-6.97
2023-01-30T01:36:04.836Z,-6.98
2023-01-30T01:37:05.812Z,-6.98
2023-01-30T01:38:04.635Z,-6.98
2023-01-30T01:39:05.754Z,-6.95
2023-01-30T01:40:04.590Z,-6.93
2023-01-30T01:41:04.702Z,-6.89
2023-01-30T01:42:04.571Z,-6.90
2023-01-30T01:43:05.621Z,-6.89
2023-01-30T01:44:04.547Z,-6.94
2023-01-30T01:45:04.705Z,-6.97
2023-01-30T01:46:04.582Z,-6.98
2023-01-30T01:47:04.740Z,-6.98
2023-01-30T01:48:04.511Z,-6.99
2023-01-30T01:49:04.503Z,-6.99
2023-01-30T01:50:04.478Z,-6.98
2023-01-30T01:51:04.558Z,-6.97
2023-01-30T01:52:04.439Z,-6.96
2023-01-30T01:53:06.577Z,-6.93
2023-01-30T01:54:04.418Z,-6.92
2023-01-30T01:55:04.504Z,-6.93
2023-01-30T01:56:04.473Z,-6.93
2023-01-30T01:57:04.549Z,-6.94
2023-01-30T01:58:04.368Z,-6.94
2023-01-30T01:59:07.703Z,-6.94
2023-01-30T02:00:04.346Z,-6.89
2023-01-30T02:01:04.439Z,-6.81
2023-01-30T02:02:04.350Z,-6.76
2023-01-30T02:03:04.449Z,-6.75
2023-01-30T02:04:04.310Z,-6.78
2023-01-30T02:05:06.516Z,-6.81
2023-01-30T02:06:04.274Z,-6.86
2023-01-30T02:07:04.415Z,-6.90
2023-01-30T02:08:04.239Z,-6.93
2023-01-30T02:09:04.344Z,-6.96
2023-01-30T02:10:04.237Z,-7.00
2023-01-30T02:11:06.377Z,-7.05
2023-01-30T02:12:04.201Z,-7.09
2023-01-30T02:13:04.323Z,-7.10
2023-01-30T02:14:04.165Z,-7.06
2023-01-30T02:15:04.360Z,-6.99
2023-01-30T02:16:04.153Z,-6.92
2023-01-30T02:17:04.232Z,-6.88
2023-01-30T02:18:04.116Z,-6.87
2023-01-30T02:19:04.223Z,-6.89
2023-01-30T02:20:04.091Z,-6.90
2023-01-30T02:21:04.162Z,-6.92
2023-01-30T02:22:04.081Z,-6.94
2023-01-30T02:23:04.248Z,-6.96
2023-01-30T02:24:04.041Z,-6.97
2023-01-30T02:25:05.168Z,-6.98
2023-01-30T02:26:04.019Z,-6.97
2023-01-30T02:27:04.087Z,-6.96
2023-01-30T02:28:04.038Z,-6.94
2023-01-30T02:29:04.101Z,-6.92
2023-01-30T02:30:03.968Z,-6.90
2023-01-30T02:31:04.131Z,-6.89
2023-01-30T02:32:03.944Z,-6.89
2023-01-30T02:33:04.070Z,-6.91
2023-01-30T02:34:03.938Z,-6.92
2023-01-30T02:35:04.011Z,-6.94
2023-01-30T02:36:03.887Z,-6.97
2023-01-30T02:37:03.949Z,-6.99
2023-01-30T02:38:03.877Z,-7.00
2023-01-30T02:39:04.005Z,-6.99
2023-01-30T02:40:03.866Z,-7.01
2023-01-30T02:41:04.026Z,-7.00
2023-01-30T02:42:03.805Z,-6.99
2023-01-30T02:43:03.962Z,-6.99
2023-01-30T02:44:03.786Z,-6.98
2023-01-30T02:45:03.887Z,-6.99
2023-01-30T02:46:03.802Z,-7.01
2023-01-30T02:47:03.822Z,-7.01
2023-01-30T02:48:03.746Z,-7.02
2023-01-30T02:49:03.858Z,-7.04
2023-01-30T02:50:03.726Z,-7.04
2023-01-30T02:51:03.898Z,-7.04
2023-01-30T02:52:03.713Z,-7.01
2023-01-30T02:53:04.857Z,-7.00
2023-01-30T02:54:03.683Z,-7.01
2023-01-30T02:55:03.762Z,-7.03
2023-01-30T02:56:03.656Z,-7.02
2023-01-30T02:57:03.693Z,-7.02
2023-01-30T02:58:03.632Z,-7.01
2023-01-30T02:59:03.731Z,-6.98
2023-01-30T03:00:03.600Z,-6.98
2023-01-30T03:01:03.885Z,-6.99
2023-01-30T03:02:03.594Z,-6.98
2023-01-30T03:03:03.602Z,-6.97
2023-01-30T03:04:03.559Z,-6.95
2023-01-30T03:06:13.537Z,-7.68
2023-01-30T03:07:13.338Z,-7.68
2023-01-30T03:08:13.373Z,-7.43
2023-01-30T03:09:13.324Z,-7.30
2023-01-30T03:10:15.391Z,-7.23
2023-01-30T03:11:13.269Z,-7.18
2023-01-30T03:12:13.335Z,-7.16
2023-01-30T03:13:13.246Z,-7.15
2023-01-30T03:14:13.368Z,-7.15
2023-01-30T03:15:13.255Z,-7.13
2023-01-30T03:16:35.315Z,-7.10
2023-01-30T03:17:13.207Z,-7.06
2023-01-30T03:18:13.236Z,-7.05
2023-01-30T03:19:13.199Z,-7.07
2023-01-30T03:20:13.272Z,-7.09
2023-01-30T03:21:13.212Z,-7.11
2023-01-30T03:22:14.241Z,-7.12
2023-01-30T03:23:13.123Z,-7.14
2023-01-30T03:24:13.253Z,-7.14
2023-01-30T03:25:13.092Z,-7.13
2023-01-30T03:26:13.315Z,-7.12
2023-01-30T03:27:13.106Z,-7.09
2023-01-30T03:28:13.120Z,-7.07
2023-01-30T03:29:13.050Z,-7.06
2023-01-30T03:30:13.157Z,-7.04
2023-01-30T03:31:13.116Z,-7.02
2023-01-30T03:32:13.185Z,-6.99
2023-01-30T03:33:13.023Z,-6.94
2023-01-30T03:34:13.123Z,-6.91
2023-01-30T03:35:12.994Z,-6.92
2023-01-30T03:36:13.050Z,-6.93
2023-01-30T03:37:12.962Z,-6.95
2023-01-30T03:38:36.070Z,-6.95
2023-01-30T03:39:12.930Z,-6.96
2023-01-30T03:40:13.030Z,-6.96
2023-01-30T03:41:12.901Z,-6.95
2023-01-30T03:42:13.058Z,-6.93
2023-01-30T03:43:12.879Z,-6.94
2023-01-30T03:44:14.077Z,-6.92
2023-01-30T03:45:12.856Z,-6.83
2023-01-30T03:46:12.983Z,-6.68
2023-01-30T03:47:12.831Z,-6.58
2023-01-30T03:48:12.968Z,-6.52
2023-01-30T03:49:12.798Z,-6.46
2023-01-30T03:50:14.912Z,-6.43
2023-01-30T03:51:12.808Z,-6.35
2023-01-30T03:52:12.935Z,-6.28
2023-01-30T03:53:12.751Z,-6.18
2023-01-30T03:54:12.875Z,-6.11
2023-01-30T03:55:12.729Z,-6.07
2023-01-30T03:56:12.872Z,-6.08
2023-01-30T03:57:12.721Z,-6.11
2023-01-30T03:58:12.847Z,-6.17
2023-01-30T03:59:12.688Z,-6.23
2023-01-30T04:00:12.793Z,-6.31
2023-01-30T04:01:12.710Z,-6.40
2023-01-30T04:02:12.804Z,-6.46
2023-01-30T04:03:12.628Z,-6.50
2023-01-30T04:04:12.662Z,-6.49
2023-01-30T04:05:12.603Z,-6.47
2023-01-30T04:06:12.685Z,-6.47
2023-01-30T04:07:12.582Z,-6.46
2023-01-30T04:08:12.668Z,-6.47
2023-01-30T04:09:12.557Z,-6.48
2023-01-30T04:10:12.658Z,-6.50
2023-01-30T04:11:12.542Z,-6.50
2023-01-30T04:12:33.670Z,-6.50
2023-01-30T04:13:12.515Z,-6.52
2023-01-30T04:14:12.599Z,-6.54
2023-01-30T04:15:12.489Z,-6.52
2023-01-30T04:16:12.560Z,-6.48
2023-01-30T04:17:12.449Z,-6.44
2023-01-30T04:18:12.602Z,-6.41
2023-01-30T04:19:12.432Z,-6.40
2023-01-30T04:20:12.579Z,-6.39
2023-01-30T04:21:12.414Z,-6.38
2023-01-30T04:22:13.487Z,-6.34
2023-01-30T04:23:12.378Z,-6.29
2023-01-30T04:24:12.514Z,-6.24
2023-01-30T04:25:12.360Z,-6.23
2023-01-30T04:26:15.732Z,-6.22
2023-01-30T04:27:12.331Z,-6.22
2023-01-30T04:28:12.476Z,-6.20
2023-01-30T04:29:12.302Z,-6.18
2023-01-30T04:30:12.412Z,-6.16
2023-01-30T04:31:12.337Z,-6.13
2023-01-30T04:32:12.348Z,-6.10
2023-01-30T04:33:12.263Z,-6.06
2023-01-30T04:34:12.381Z,-6.02
2023-01-30T04:35:12.245Z,-6.00
2023-01-30T04:36:12.312Z,-5.98
2023-01-30T04:37:12.233Z,-5.96
2023-01-30T04:38:12.367Z,-5.94
2023-01-30T04:39:12.181Z,-5.93
2023-01-30T04:40:14.383Z,-5.91
2023-01-30T04:41:12.155Z,-5.91
2023-01-30T04:42:12.214Z,-5.91
2023-01-30T04:43:12.145Z,-5.91
2023-01-30T04:44:12.270Z,-5.92
2023-01-30T04:45:12.125Z,-5.92
2023-01-30T04:46:12.199Z,-5.91
2023-01-30T04:47:12.120Z,-5.91
2023-01-30T04:48:12.231Z,-5.92
2023-01-30T04:49:12.072Z,-5.92
2023-01-30T04:50:13.090Z,-5.85
2023-01-30T04:51:12.035Z,-5.78
2023-01-30T04:52:12.104Z,-5.73
2023-01-30T04:53:12.006Z,-5.70
2023-01-30T04:54:12.148Z,-5.70
2023-01-30T04:55:12.013Z,-5.70
2023-01-30T04:56:33.171Z,-5.71
2023-01-30T04:57:11.978Z,-5.68
2023-01-30T04:58:12.163Z,-5.61
2023-01-30T04:59:11.932Z,-5.57
2023-01-30T05:00:12.040Z,-5.52
2023-01-30T05:01:11.938Z,-5.49
2023-01-30T05:02:32.950Z,-5.48
2023-01-30T05:03:11.886Z,-5.45
2023-01-30T05:04:12.015Z,-5.44
2023-01-30T05:05:11.859Z,-5.43
2023-01-30T05:06:11.949Z,-5.42
2023-01-30T05:07:11.874Z,-5.42
2023-01-30T05:08:13.008Z,-5.43
2023-01-30T05:09:11.807Z,-5.45
2023-01-30T05:10:11.931Z,-5.44
2023-01-30T05:11:11.788Z,-5.42
2023-01-30T05:12:11.850Z,-5.42
2023-01-30T05:13:11.777Z,-5.44
2023-01-30T05:14:11.886Z,-5.48
2023-01-30T05:15:11.737Z,-5.52
2023-01-30T05:16:12.845Z,-5.59
2023-01-30T05:17:11.742Z,-5.65
2023-01-30T05:18:11.755Z,-5.69
2023-01-30T05:19:11.698Z,-5.72
2023-01-30T05:20:12.823Z,-5.70
2023-01-30T05:21:11.655Z,-5.63
2023-01-30T05:22:11.724Z,-5.52
2023-01-30T05:23:11.632Z,-5.41
2023-01-30T05:24:11.766Z,-5.31
2023-01-30T05:25:11.624Z,-5.28
2023-01-30T05:26:11.815Z,-5.29
2023-01-30T05:27:11.590Z,-5.28
2023-01-30T05:28:11.624Z,-5.24
2023-01-30T05:29:11.563Z,-5.17
2023-01-30T05:30:11.688Z,-5.18
2023-01-30T05:31:11.626Z,-5.21
2023-01-30T05:32:11.703Z,-5.22
2023-01-30T05:33:11.503Z,-5.21
2023-01-30T05:34:32.613Z,-5.19
2023-01-30T05:35:11.481Z,-5.21
2023-01-30T05:36:11.571Z,-5.22
2023-01-30T05:37:11.471Z,-5.25
2023-01-30T05:38:11.518Z,-5.29
2023-01-30T05:39:11.432Z,-5.30
2023-01-30T05:40:11.552Z,-5.25
2023-01-30T05:41:11.411Z,-5.22
2023-01-30T05:42:11.580Z,-5.20
2023-01-30T05:43:11.400Z,-5.19
2023-01-30T05:44:12.573Z,-5.17
2023-01-30T05:45:11.377Z,-5.13
2023-01-30T05:46:11.461Z,-5.14
2023-01-30T05:47:11.339Z,-5.17
2023-01-30T05:48:12.414Z,-5.19
2023-01-30T05:49:11.345Z,-5.18
2023-01-30T05:50:11.418Z,-5.13
2023-01-30T05:51:11.289Z,-5.06
2023-01-30T05:52:11.458Z,-5.03
2023-01-30T05:53:11.259Z,-5.00
2023-01-30T05:54:11.396Z,-4.99
2023-01-30T05:55:11.246Z,-5.00
2023-01-30T05:56:11.345Z,-5.02
2023-01-30T05:57:11.208Z,-5.04
2023-01-30T05:58:11.256Z,-5.06
2023-01-30T05:59:11.191Z,-5.01
2023-01-30T06:00:11.308Z,-4.95
2023-01-30T06:01:11.176Z,-4.91
2023-01-30T06:02:12.141Z,-4.88
2023-01-30T06:03:11.136Z,-4.86
2023-01-30T06:04:11.196Z,-4.86
2023-01-30T06:05:11.113Z,-4.85
2023-01-30T06:06:11.198Z,-4.88
2023-01-30T06:07:11.103Z,-4.91
2023-01-30T06:08:12.169Z,-4.92
2023-01-30T06:09:11.066Z,-4.90
2023-01-30T06:10:11.201Z,-4.86
2023-01-30T06:11:11.035Z,-4.85
2023-01-30T06:12:11.203Z,-4.85
2023-01-30T06:13:11.080Z,-4.84
2023-01-30T06:14:11.033Z,-4.83
2023-01-30T06:15:11.054Z,-4.80
2023-01-30T06:16:11.102Z,-4.81
2023-01-30T06:17:11.002Z,-4.83
2023-01-30T06:18:11.116Z,-4.83
2023-01-30T06:19:10.969Z,-4.82
2023-01-30T06:20:11.051Z,-4.80
2023-01-30T06:21:10.947Z,-4.76
2023-01-30T06:22:11.108Z,-4.73
2023-01-30T06:23:10.891Z,-4.74
2023-01-30T06:24:10.924Z,-4.75
2023-01-30T06:25:10.882Z,-4.76
2023-01-30T06:26:11.076Z,-4.77
2023-01-30T06:27:10.868Z,-4.80
2023-01-30T06:28:10.990Z,-4.82
2023-01-30T06:29:10.817Z,-4.83
2023-01-30T06:30:10.936Z,-4.81
2023-01-30T06:31:10.899Z,-4.77
2023-01-30T06:32:11.909Z,-4.74
2023-01-30T06:33:10.795Z,-4.70
2023-01-30T06:34:10.898Z,-4.68
2023-01-30T06:35:10.751Z,-4.65
2023-01-30T06:36:10.839Z,-4.60
2023-01-30T06:37:10.747Z,-4.56
2023-01-30T06:38:10.877Z,-4.53
2023-01-30T06:39:10.699Z,-4.49
2023-01-30T06:40:10.857Z,-4.46
2023-01-30T06:41:10.668Z,-4.44
2023-01-30T06:42:10.728Z,-4.43
2023-01-30T06:43:10.667Z,-4.42
2023-01-30T06:44:10.776Z,-4.41
2023-01-30T06:45:10.613Z,-4.40
2023-01-30T06:46:10.746Z,-4.41
2023-01-30T06:47:10.585Z,-4.41
2023-01-30T06:48:10.743Z,-4.44
2023-01-30T06:49:10.576Z,-4.46
2023-01-30T06:50:10.588Z,-4.45
2023-01-30T06:51:10.546Z,-4.45
2023-01-30T06:52:10.612Z,-4.43
2023-01-30T06:53:10.514Z,-4.41
2023-01-30T06:54:10.644Z,-4.39
2023-01-30T06:55:10.511Z,-4.37
2023-01-30T06:56:10.583Z,-4.34
2023-01-30T06:57:10.458Z,-4.30
2023-01-30T06:58:10.657Z,-4.26
2023-01-30T06:59:10.443Z,-4.23
2023-01-30T07:00:11.473Z,-4.22
2023-01-30T07:01:10.438Z,-4.23
2023-01-30T07:02:10.545Z,-4.23
2023-01-30T07:03:10.384Z,-4.22
2023-01-30T07:04:10.611Z,-4.19
2023-01-30T07:05:10.374Z,-4.17
2023-01-30T07:06:34.662Z,-4.14
2023-01-30T07:07:10.342Z,-4.10
2023-01-30T07:08:10.504Z,-4.06
2023-01-30T07:09:10.315Z,-4.07
2023-01-30T07:10:10.431Z,-4.08
2023-01-30T07:11:10.291Z,-4.08
2023-01-30T07:12:10.431Z,-4.07
2023-01-30T07:13:10.275Z,-4.05
2023-01-30T07:14:10.419Z,-4.04
2023-01-30T07:15:10.260Z,-4.02
2023-01-30T07:16:10.340Z,-3.98
2023-01-30T07:17:10.223Z,-3.95
2023-01-30T07:18:10.337Z,-3.92
2023-01-30T07:19:10.225Z,-3.91
2023-01-30T07:20:10.313Z,-3.88
2023-01-30T07:21:10.167Z,-3.83
2023-01-30T07:22:11.274Z,-3.79
2023-01-30T07:23:10.160Z,-3.79
2023-01-30T07:24:10.340Z,-3.79
2023-01-30T07:25:10.126Z,-3.79
2023-01-30T07:26:10.338Z,-3.76
2023-01-30T07:27:10.087Z,-3.72
2023-01-30T07:28:31.129Z,-3.70
2023-01-30T07:29:10.067Z,-3.68
2023-01-30T07:30:10.247Z,-3.65
2023-01-30T07:31:10.038Z,-3.63
2023-01-30T07:32:10.135Z,-3.59
2023-01-30T07:33:10.031Z,-3.54
2023-01-30T07:34:11.187Z,-3.50
2023-01-30T07:35:10.016Z,-3.48
2023-01-30T07:36:10.045Z,-3.46
2023-01-30T07:37:09.965Z,-3.43
2023-01-30T07:38:10.027Z,-3.40
2023-01-30T07:39:09.947Z,-3.36
2023-01-30T07:40:10.064Z,-3.31
2023-01-30T07:41:09.918Z,-3.27
2023-01-30T07:42:10.045Z,-3.25
2023-01-30T07:43:09.896Z,-3.22
2023-01-30T07:44:10.037Z,-3.20
2023-01-30T07:45:09.875Z,-3.16
2023-01-30T07:46:09.974Z,-3.13
2023-01-30T07:47:09.852Z,-3.09
2023-01-30T07:48:10.011Z,-3.05
2023-01-30T07:49:09.817Z,-3.01
2023-01-30T07:50:09.943Z,-2.99
2023-01-30T07:51:09.793Z,-2.98
2023-01-30T07:52:09.985Z,-2.98
2023-01-30T07:53:09.784Z,-2.98
2023-01-30T07:54:09.961Z,-2.95
2023-01-30T07:55:09.746Z,-2.93
2023-01-30T07:56:09.741Z,-2.88
2023-01-30T07:57:09.703Z,-2.82
2023-01-30T07:58:09.781Z,-2.77
2023-01-30T07:59:09.692Z,-2.73
2023-01-30T08:00:09.873Z,-2.66
2023-01-30T08:01:09.692Z,-2.60
2023-01-30T08:02:10.790Z,-2.57
2023-01-30T08:03:09.638Z,-2.54
2023-01-30T08:04:09.681Z,-2.51
2023-01-30T08:05:09.622Z,-2.48
2023-01-30T08:06:10.694Z,-2.42
2023-01-30T08:07:09.580Z,-2.36
2023-01-30T08:08:09.681Z,-2.35
2023-01-30T08:09:09.571Z,-2.34
2023-01-30T08:10:11.879Z,-2.31
2023-01-30T08:11:09.555Z,-2.27
2023-01-30T08:12:09.682Z,-2.27
2023-01-30T08:13:09.611Z,-2.29
2023-01-30T08:14:09.587Z,-2.31
2023-01-30T08:15:09.507Z,-2.32
2023-01-30T08:16:09.629Z,-2.31
2023-01-30T08:17:09.478Z,-2.29
2023-01-30T08:18:09.529Z,-2.26
2023-01-30T08:19:09.450Z,-2.22
2023-01-30T08:20:09.495Z,-2.17
2023-01-30T08:21:09.418Z,-2.15
2023-01-30T08:22:09.529Z,-2.14
2023-01-30T08:23:09.412Z,-2.12
2023-01-30T08:24:10.519Z,-2.08
2023-01-30T08:25:09.395Z,-2.04
2023-01-30T08:26:09.427Z,-2.03
2023-01-30T08:27:09.358Z,-2.04
2023-01-30T08:28:09.478Z,-2.05
2023-01-30T08:29:09.367Z,-2.05
2023-01-30T08:30:09.430Z,-2.05
2023-01-30T08:31:09.379Z,-2.03
2023-01-30T08:32:09.434Z,-1.99
2023-01-30T08:33:09.267Z,-1.92
2023-01-30T08:34:09.296Z,-1.83
2023-01-30T08:35:09.243Z,-1.70
2023-01-30T08:36:09.344Z,-1.58
2023-01-30T08:37:09.214Z,-1.49
2023-01-30T08:38:09.307Z,-1.45
2023-01-30T08:39:09.190Z,-1.43
2023-01-30T08:40:09.243Z,-1.42
2023-01-30T08:41:09.162Z,-1.39
2023-01-30T08:42:09.192Z,-1.35
2023-01-30T08:43:09.136Z,-1.25
2023-01-30T08:44:09.168Z,-1.10
2023-01-30T08:45:09.114Z,-0.94
2023-01-30T08:46:09.237Z,-0.81
2023-01-30T08:47:09.094Z,-0.68
2023-01-30T08:48:09.126Z,-0.55
2023-01-30T08:49:09.052Z,-0.43
2023-01-30T08:50:10.131Z,-0.32
2023-01-30T08:51:09.032Z,-0.22
2023-01-30T08:52:10.128Z,-0.14
2023-01-30T08:53:09.065Z,-0.07
2023-01-30T08:54:09.063Z,0.01
2023-01-30T08:55:08.971Z,0.09
2023-01-30T08:56:09.050Z,0.18
2023-01-30T08:57:08.975Z,0.28
2023-01-30T08:58:09.041Z,0.39
2023-01-30T08:59:08.938Z,0.51
2023-01-30T09:00:09.035Z,0.61
2023-01-30T09:01:08.954Z,0.70
2023-01-30T09:02:09.006Z,0.79
2023-01-30T09:03:08.893Z,0.88
2023-01-30T09:04:08.892Z,0.97
2023-01-30T09:05:08.859Z,1.06
2023-01-30T09:06:08.946Z,1.14
2023-01-30T09:07:08.838Z,1.22
2023-01-30T09:08:09.843Z,1.30
2023-01-30T09:09:08.811Z,1.36
2023-01-30T09:10:08.835Z,1.43
2023-01-30T09:11:08.789Z,1.48
2023-01-30T09:12:08.903Z,1.54
2023-01-30T09:13:08.757Z,1.59
2023-01-30T09:14:10.867Z,1.64
2023-01-30T09:15:08.780Z,1.69
2023-01-30T09:16:08.783Z,1.73
2023-01-30T09:17:08.819Z,1.77
2023-01-30T09:18:08.738Z,1.80
2023-01-30T09:19:08.684Z,1.83
2023-01-30T09:20:10.797Z,1.87
2023-01-30T09:21:08.647Z,1.90
2023-01-30T09:22:08.722Z,1.95
2023-01-30T09:23:08.809Z,2.00
2023-01-30T09:24:08.661Z,2.04
2023-01-30T09:25:08.629Z,2.08
2023-01-30T09:26:08.663Z,2.12
2023-01-30T09:27:08.570Z,2.16
2023-01-30T09:28:08.671Z,2.18
2023-01-30T09:29:08.564Z,2.19
2023-01-30T09:30:08.640Z,2.22
2023-01-30T09:31:08.620Z,2.24
2023-01-30T09:32:08.600Z,2.25
2023-01-30T09:33:08.492Z,2.26
2023-01-30T09:34:08.612Z,2.27
2023-01-30T09:35:08.488Z,2.29
2023-01-30T09:36:08.555Z,2.32
2023-01-30T09:37:08.451Z,2.35
2023-01-30T09:38:08.531Z,2.38
2023-01-30T09:39:08.416Z,2.42
2023-01-30T09:40:08.437Z,2.47
2023-01-30T09:41:08.384Z,2.53
2023-01-30T09:42:08.504Z,2.59
2023-01-30T09:43:08.611Z,2.66
2023-01-30T09:44:08.479Z,2.72
2023-01-30T09:45:08.328Z,2.78
2023-01-30T09:46:08.407Z,2.84
2023-01-30T09:47:08.320Z,2.89
2023-01-30T09:48:11.602Z,2.94
2023-01-30T09:49:08.302Z,2.98
2023-01-30T09:50:08.305Z,3.00
2023-01-30T09:51:08.267Z,3.01
2023-01-30T09:52:08.315Z,3.02
2023-01-30T09:53:08.260Z,3.03
2023-01-30T09:54:08.343Z,3.03
2023-01-30T09:55:08.211Z,3.04
2023-01-30T09:56:08.233Z,3.06
2023-01-30T09:57:21.724Z,3.07
2023-01-30T09:58:09.191Z,3.08
2023-01-30T09:59:09.177Z,3.10
2023-01-30T10:00:08.180Z,3.12
2023-01-30T10:01:08.285Z,3.13
2023-01-30T10:02:08.190Z,3.14
2023-01-30T10:03:08.331Z,3.16
2023-01-30T10:04:08.271Z,3.17
2023-01-30T10:05:08.391Z,3.18
2023-01-30T10:06:08.235Z,3.19
2023-01-30T10:07:08.111Z,3.20
2023-01-30T10:08:08.053Z,3.20
2023-01-30T10:09:08.150Z,3.20
2023-01-30T10:10:08.040Z,3.20
2023-01-30T10:11:10.386Z,3.23
2023-01-30T10:12:07.988Z,3.25
2023-01-30T10:13:08.049Z,3.28
2023-01-30T10:14:07.958Z,3.30
2023-01-30T10:15:07.967Z,3.33
2023-01-30T10:16:07.995Z,3.35
2023-01-30T10:17:07.991Z,3.38
2023-01-30T10:18:28.909Z,3.40
2023-01-30T10:19:35.732Z,3.44
2023-01-30T10:20:08.900Z,3.48
2023-01-30T10:21:28.888Z,3.51
2023-01-30T10:22:07.856Z,3.55
2023-01-30T10:23:07.938Z,3.58
2023-01-30T10:24:07.828Z,3.62
2023-01-30T10:25:08.115Z,3.65
2023-01-30T10:26:07.809Z,3.66
2023-01-30T10:27:07.920Z,3.67
2023-01-30T10:28:07.813Z,3.68
2023-01-30T10:29:08.386Z,3.68
2023-01-30T10:30:07.842Z,3.67
2023-01-30T10:31:08.091Z,3.66
2023-01-30T10:32:07.824Z,3.66
2023-01-30T10:33:07.877Z,3.66
2023-01-30T10:34:07.901Z,3.68
2023-01-30T10:35:08.069Z,3.69
2023-01-30T10:36:07.831Z,3.69
2023-01-30T10:37:07.739Z,3.69
2023-01-30T10:38:07.773Z,3.69
2023-01-30T10:39:07.767Z,3.69
2023-01-30T10:40:07.748Z,3.69
2023-01-30T10:41:07.658Z,3.68
2023-01-30T10:42:07.635Z,3.69
2023-01-30T10:43:07.683Z,3.70
2023-01-30T10:44:07.593Z,3.72
2023-01-30T10:45:07.778Z,3.73
2023-01-30T10:46:07.693Z,3.75
2023-01-30T10:47:07.587Z,3.76
2023-01-30T10:48:07.537Z,3.77
2023-01-30T10:49:07.599Z,3.78
2023-01-30T10:50:07.514Z,3.79
2023-01-30T10:51:07.563Z,3.81
2023-01-30T10:52:07.494Z,3.84
2023-01-30T10:53:07.523Z,3.85
2023-01-30T10:54:07.434Z,3.86
2023-01-30T10:55:07.537Z,3.87
2023-01-30T10:56:07.412Z,3.88
2023-01-30T10:57:07.512Z,3.89
2023-01-30T10:58:07.471Z,3.91
2023-01-30T10:59:07.475Z,3.94
2023-01-30T11:00:07.376Z,3.97
2023-01-30T11:01:07.450Z,4.00
2023-01-30T11:02:07.354Z,4.02
2023-01-30T11:03:07.481Z,4.03
2023-01-30T11:04:07.626Z,4.04
2023-01-30T11:05:07.551Z,4.05
2023-01-30T11:06:07.290Z,4.06
2023-01-30T11:07:07.500Z,4.06
2023-01-30T11:08:07.453Z,4.05
2023-01-30T11:09:07.304Z,4.05
2023-01-30T11:10:07.311Z,4.04
2023-01-30T11:11:08.082Z,4.04
2023-01-30T11:12:07.212Z,4.05
2023-01-30T11:13:07.302Z,4.06
2023-01-30T11:14:07.204Z,4.07
2023-01-30T11:15:07.232Z,4.07
2023-01-30T11:16:07.365Z,4.10
2023-01-30T11:17:07.193Z,4.12
2023-01-30T11:18:40.464Z,4.15
2023-01-30T11:19:23.480Z,4.17
2023-01-30T11:20:08.371Z,4.20
2023-01-30T11:21:07.185Z,4.23
2023-01-30T11:22:07.122Z,4.27
2023-01-30T11:23:07.099Z,4.30
2023-01-30T11:24:08.160Z,4.32
2023-01-30T11:25:07.107Z,4.34
2023-01-30T11:26:12.516Z,4.35
2023-01-30T11:27:08.056Z,4.38
2023-01-30T11:28:07.071Z,4.40
2023-01-30T11:29:06.988Z,4.42
2023-01-30T11:30:28.068Z,4.45
2023-01-30T11:31:06.990Z,4.50
2023-01-30T11:32:07.093Z,4.54
2023-01-30T11:33:06.939Z,4.58
2023-01-30T11:34:07.003Z,4.60
2023-01-30T11:35:06.909Z,4.62
2023-01-30T11:36:06.915Z,4.61
2023-01-30T11:37:06.889Z,4.62
2023-01-30T11:38:06.984Z,4.65
2023-01-30T11:39:06.848Z,4.67
2023-01-30T11:40:07.870Z,4.70
2023-01-30T11:41:06.846Z,4.75
2023-01-30T11:42:06.856Z,4.84
2023-01-30T11:43:06.804Z,4.94
2023-01-30T11:44:06.938Z,5.01
2023-01-30T11:45:17.305Z,5.05
2023-01-30T11:46:07.821Z,5.08
2023-01-30T11:47:06.798Z,5.14
2023-01-30T11:48:07.756Z,5.22
2023-01-30T11:49:47.798Z,5.30
2023-01-30T11:50:20.303Z,5.39
2023-01-30T11:51:07.697Z,5.47
2023-01-30T11:52:06.735Z,5.55
2023-01-30T11:53:06.687Z,5.62
2023-01-30T11:54:07.760Z,5.69
2023-01-30T11:55:06.647Z,5.76
2023-01-30T11:56:09.107Z,5.83
2023-01-30T11:57:06.626Z,5.89
2023-01-30T11:58:06.678Z,5.95
2023-01-30T11:59:06.605Z,6.01
2023-01-30T12:00:06.685Z,6.09
2023-01-30T12:01:06.626Z,6.17
2023-01-30T12:02:06.767Z,6.26
2023-01-30T12:03:06.600Z,6.35
2023-01-30T12:04:06.611Z,6.43
2023-01-30T12:05:06.526Z,6.47
2023-01-30T12:06:06.518Z,6.51
2023-01-30T12:07:06.489Z,6.54
2023-01-30T12:08:06.576Z,6.56
2023-01-30T12:09:06.466Z,6.55
2023-01-30T12:10:06.547Z,6.54
2023-01-30T12:11:06.436Z,6.57
2023-01-30T12:12:06.464Z,6.59
2023-01-30T12:13:06.407Z,6.57
2023-01-30T12:14:06.541Z,6.50
2023-01-30T12:15:06.385Z,6.44
2023-01-30T12:16:06.414Z,6.39
2023-01-30T12:17:06.360Z,6.36
2023-01-30T12:18:06.408Z,6.33
2023-01-30T12:19:06.341Z,6.31
2023-01-30T12:20:06.387Z,6.31
2023-01-30T12:21:06.311Z,6.30
2023-01-30T12:22:06.336Z,6.27
2023-01-30T12:23:06.315Z,6.26
2023-01-30T12:24:06.335Z,6.25
2023-01-30T12:25:06.245Z,6.23
2023-01-30T12:26:06.305Z,6.22
2023-01-30T12:27:06.230Z,6.21
2023-01-30T12:28:06.271Z,6.18
2023-01-30T12:29:06.200Z,6.16
2023-01-30T12:30:06.294Z,6.14
2023-01-30T12:31:06.174Z,6.14
2023-01-30T12:32:06.257Z,6.15
2023-01-30T12:33:06.148Z,6.16
2023-01-30T12:34:06.215Z,6.16
2023-01-30T12:35:06.124Z,6.17
2023-01-30T12:36:06.124Z,6.16
2023-01-30T12:37:06.103Z,6.17
2023-01-30T12:38:06.182Z,6.17
2023-01-30T12:39:06.071Z,6.16
2023-01-30T12:40:06.165Z,6.15
2023-01-30T12:41:06.056Z,6.15
2023-01-30T12:42:06.067Z,6.17
2023-01-30T12:43:06.030Z,6.14
2023-01-30T12:44:07.050Z,6.11
2023-01-30T12:45:05.995Z,6.07
2023-01-30T12:46:06.148Z,6.03
2023-01-30T12:47:05.978Z,5.99
2023-01-30T12:48:06.012Z,5.95
2023-01-30T12:50:06.933Z,5.85
2023-01-30T12:51:05.923Z,5.82
2023-01-30T12:52:05.947Z,5.79
2023-01-30T12:53:05.897Z,5.78
2023-01-30T12:54:05.943Z,5.75
2023-01-30T12:55:05.858Z,5.73
2023-01-30T12:56:05.913Z,5.72
2023-01-30T12:57:05.835Z,5.69
2023-01-30T12:58:05.883Z,5.67
2023-01-30T12:59:05.815Z,5.64
2023-01-30T13:00:05.917Z,5.61
2023-01-30T13:01:05.804Z,5.57
2023-01-30T13:02:05.849Z,5.57